sensor_id;sensor_type;location;lat;lon;timestamp;temperature;humidity
26505;DHT22;19493;48.042;7.584;2024-02-26T00:01:23;8.00;99.90
26505;DHT22;19493;48.042;7.584;2024-02-26T00:03:49;7.80;99.90
26505;DHT22;19493;48.042;7.584;2024-02-26T00:06:15;7.60;99.90
26505;DHT22;19493;48.042;7.584;2024-02-26T00:08:40;7.50;99.90
26505;DHT22;19493;48.042;7.584;2024-02-26T00:11:06;7.30;99.90
26505;DHT22;19493;48.042;7.584;2024-02-26T00:13:32;7.20;99.90
26505;DHT22;19493;48.042;7.584;2024-02-26T00:15:57;7.20;99.90
26505;DHT22;19493;48.042;7.584;2024-02-26T00:18:23;7.20;99.90
26505;DHT22;19493;48.042;7.584;2024-02-26T00:20:48;7.10;99.90
26505;DHT22;19493;48.042;7.584;2024-02-26T00:23:17;7.10;99.90
26505;DHT22;19493;48.042;7.584;2024-02-26T00:25:42;7.00;99.90
26505;DHT22;19493;48.042;7.584;2024-02-26T00:28:09;7.00;99.90
26505;DHT22;19493;48.042;7.584;2024-02-26T00:30:35;7.00;99.90
26505;DHT22;19493;48.042;7.584;2024-02-26T00:33:01;7.00;99.90
26505;DHT22;19493;48.042;7.584;2024-02-26T00:35:26;7.00;99.90
26505;DHT22;19493;48.042;7.584;2024-02-26T00:37:52;6.90;99.90
26505;DHT22;19493;48.042;7.584;2024-02-26T00:40:18;6.90;99.90
26505;DHT22;19493;48.042;7.584;2024-02-26T00:42:44;6.90;99.90
26505;DHT22;19493;48.042;7.584;2024-02-26T00:45:15;6.90;99.90
26505;DHT22;19493;48.042;7.584;2024-02-26T00:47:42;6.90;99.90
26505;DHT22;19493;48.042;7.584;2024-02-26T00:50:08;6.80;99.90
26505;DHT22;19493;48.042;7.584;2024-02-26T00:52:34;6.80;99.90
26505;DHT22;19493;48.042;7.584;2024-02-26T00:55:01;6.80;99.90
26505;DHT22;19493;48.042;7.584;2024-02-26T00:57:26;6.80;99.90
26505;DHT22;19493;48.042;7.584;2024-02-26T00:59:52;6.80;99.90
26505;DHT22;19493;48.042;7.584;2024-02-26T01:02:17;6.70;99.90
26505;DHT22;19493;48.042;7.584;2024-02-26T01:04:43;6.70;99.90
26505;DHT22;19493;48.042;7.584;2024-02-26T01:07:09;6.70;99.90
26505;DHT22;19493;48.042;7.584;2024-02-26T01:09:34;6.70;99.90
26505;DHT22;19493;48.042;7.584;2024-02-26T01:12:00;6.60;99.90
26505;DHT22;19493;48.042;7.584;2024-02-26T01:14:27;6.60;99.90
26505;DHT22;19493;48.042;7.584;2024-02-26T01:16:53;6.60;99.90
26505;DHT22;19493;48.042;7.584;2024-02-26T01:19:19;6.60;99.90
26505;DHT22;19493;48.042;7.584;2024-02-26T01:21:44;6.70;99.90
26505;DHT22;19493;48.042;7.584;2024-02-26T01:24:10;6.70;99.90
26505;DHT22;19493;48.042;7.584;2024-02-26T01:26:36;6.70;99.90
26505;DHT22;19493;48.042;7.584;2024-02-26T01:29:01;6.70;99.90
26505;DHT22;19493;48.042;7.584;2024-02-26T01:31:27;6.70;99.90
26505;DHT22;19493;48.042;7.584;2024-02-26T01:33:52;6.70;99.90
26505;DHT22;19493;48.042;7.584;2024-02-26T01:36:18;6.70;99.90
26505;DHT22;19493;48.042;7.584;2024-02-26T01:38:44;6.70;99.90
26505;DHT22;19493;48.042;7.584;2024-02-26T01:41:09;6.70;99.90
26505;DHT22;19493;48.042;7.584;2024-02-26T01:43:35;6.70;99.90
26505;DHT22;19493;48.042;7.584;2024-02-26T01:46:00;6.70;99.90
26505;DHT22;19493;48.042;7.584;2024-02-26T01:48:26;6.70;99.90
26505;DHT22;19493;48.042;7.584;2024-02-26T01:50:52;6.70;99.90
26505;DHT22;19493;48.042;7.584;2024-02-26T01:53:19;6.70;99.90
26505;DHT22;19493;48.042;7.584;2024-02-26T01:55:45;6.70;99.90
26505;DHT22;19493;48.042;7.584;2024-02-26T01:58:11;6.70;99.90
26505;DHT22;19493;48.042;7.584;2024-02-26T02:00:37;6.70;99.90
26505;DHT22;19493;48.042;7.584;2024-02-26T02:03:04;6.70;99.90
26505;DHT22;19493;48.042;7.584;2024-02-26T02:05:30;6.70;99.90
26505;DHT22;19493;48.042;7.584;2024-02-26T02:07:56;6.70;99.90
26505;DHT22;19493;48.042;7.584;2024-02-26T02:10:22;6.70;99.90
26505;DHT22;19493;48.042;7.584;2024-02-26T02:12:50;6.60;99.90
26505;DHT22;19493;48.042;7.584;2024-02-26T02:15:16;6.60;99.90
26505;DHT22;19493;48.042;7.584;2024-02-26T02:17:41;6.60;99.90
26505;DHT22;19493;48.042;7.584;2024-02-26T02:20:15;6.60;99.90
26505;DHT22;19493;48.042;7.584;2024-02-26T02:22:42;6.60;99.90
26505;DHT22;19493;48.042;7.584;2024-02-26T02:25:08;6.60;99.90
26505;DHT22;19493;48.042;7.584;2024-02-26T02:27:34;6.50;99.90
26505;DHT22;19493;48.042;7.584;2024-02-26T02:29:59;6.50;99.90
26505;DHT22;19493;48.042;7.584;2024-02-26T02:32:25;6.50;99.90
26505;DHT22;19493;48.042;7.584;2024-02-26T02:34:51;6.50;99.90
26505;DHT22;19493;48.042;7.584;2024-02-26T02:37:17;6.60;99.90
26505;DHT22;19493;48.042;7.584;2024-02-26T02:39:43;6.60;99.90
26505;DHT22;19493;48.042;7.584;2024-02-26T02:42:09;6.60;99.90
26505;DHT22;19493;48.042;7.584;2024-02-26T02:44:35;6.60;99.90
26505;DHT22;19493;48.042;7.584;2024-02-26T02:47:01;6.50;99.90
26505;DHT22;19493;48.042;7.584;2024-02-26T02:49:27;6.60;99.90
26505;DHT22;19493;48.042;7.584;2024-02-26T02:51:52;6.50;99.90
26505;DHT22;19493;48.042;7.584;2024-02-26T02:54:20;6.50;99.90
26505;DHT22;19493;48.042;7.584;2024-02-26T02:56:45;6.50;99.90
26505;DHT22;19493;48.042;7.584;2024-02-26T02:59:11;6.60;99.90
26505;DHT22;19493;48.042;7.584;2024-02-26T03:01:36;6.60;99.90
26505;DHT22;19493;48.042;7.584;2024-02-26T03:04:02;6.60;99.90
26505;DHT22;19493;48.042;7.584;2024-02-26T03:06:28;6.60;99.90
26505;DHT22;19493;48.042;7.584;2024-02-26T03:08:54;6.60;99.90
26505;DHT22;19493;48.042;7.584;2024-02-26T03:11:20;6.60;99.90
26505;DHT22;19493;48.042;7.584;2024-02-26T03:13:46;6.60;99.90
26505;DHT22;19493;48.042;7.584;2024-02-26T03:16:11;6.60;99.90
26505;DHT22;19493;48.042;7.584;2024-02-26T03:18:40;6.60;99.90
26505;DHT22;19493;48.042;7.584;2024-02-26T03:21:06;6.70;99.90
26505;DHT22;19493;48.042;7.584;2024-02-26T03:23:32;6.60;99.90
26505;DHT22;19493;48.042;7.584;2024-02-26T03:26:02;6.60;99.90
26505;DHT22;19493;48.042;7.584;2024-02-26T03:28:29;6.60;99.90
26505;DHT22;19493;48.042;7.584;2024-02-26T03:30:54;6.50;99.90
26505;DHT22;19493;48.042;7.584;2024-02-26T03:33:20;6.50;99.90
26505;DHT22;19493;48.042;7.584;2024-02-26T03:35:45;6.50;99.90
26505;DHT22;19493;48.042;7.584;2024-02-26T03:38:11;6.50;99.90
26505;DHT22;19493;48.042;7.584;2024-02-26T03:40:36;6.50;99.90
26505;DHT22;19493;48.042;7.584;2024-02-26T03:43:02;6.50;99.90
26505;DHT22;19493;48.042;7.584;2024-02-26T03:45:30;6.40;99.90
26505;DHT22;19493;48.042;7.584;2024-02-26T03:47:55;6.40;99.90
26505;DHT22;19493;48.042;7.584;2024-02-26T03:50:21;6.40;99.90
26505;DHT22;19493;48.042;7.584;2024-02-26T03:52:46;6.40;99.90
26505;DHT22;19493;48.042;7.584;2024-02-26T03:55:12;6.40;99.90
26505;DHT22;19493;48.042;7.584;2024-02-26T03:57:37;6.40;99.90
26505;DHT22;19493;48.042;7.584;2024-02-26T04:00:03;6.40;99.90
26505;DHT22;19493;48.042;7.584;2024-02-26T04:02:29;6.40;99.90
26505;DHT22;19493;48.042;7.584;2024-02-26T04:04:55;6.40;99.90
26505;DHT22;19493;48.042;7.584;2024-02-26T04:07:20;6.40;99.90
26505;DHT22;19493;48.042;7.584;2024-02-26T04:09:46;6.40;99.90
26505;DHT22;19493;48.042;7.584;2024-02-26T04:12:11;6.40;99.90
26505;DHT22;19493;48.042;7.584;2024-02-26T04:14:37;6.40;99.90
26505;DHT22;19493;48.042;7.584;2024-02-26T04:17:03;6.40;99.90
26505;DHT22;19493;48.042;7.584;2024-02-26T04:19:28;6.40;99.90
26505;DHT22;19493;48.042;7.584;2024-02-26T04:21:54;6.40;99.90
26505;DHT22;19493;48.042;7.584;2024-02-26T04:24:20;6.40;99.90
26505;DHT22;19493;48.042;7.584;2024-02-26T04:26:45;6.40;99.90
26505;DHT22;19493;48.042;7.584;2024-02-26T04:29:11;6.40;99.90
26505;DHT22;19493;48.042;7.584;2024-02-26T04:31:37;6.40;99.90
26505;DHT22;19493;48.042;7.584;2024-02-26T04:34:03;6.40;99.90
26505;DHT22;19493;48.042;7.584;2024-02-26T04:36:29;6.40;99.90
26505;DHT22;19493;48.042;7.584;2024-02-26T04:38:54;6.40;99.90
26505;DHT22;19493;48.042;7.584;2024-02-26T04:41:22;6.30;99.90
26505;DHT22;19493;48.042;7.584;2024-02-26T04:43:47;6.40;99.90
26505;DHT22;19493;48.042;7.584;2024-02-26T04:46:13;6.40;99.90
26505;DHT22;19493;48.042;7.584;2024-02-26T04:48:39;6.40;99.90
26505;DHT22;19493;48.042;7.584;2024-02-26T04:51:06;6.30;99.90
26505;DHT22;19493;48.042;7.584;2024-02-26T04:53:32;6.30;99.90
26505;DHT22;19493;48.042;7.584;2024-02-26T04:55:58;6.30;99.90
26505;DHT22;19493;48.042;7.584;2024-02-26T04:58:24;6.30;99.90
26505;DHT22;19493;48.042;7.584;2024-02-26T05:00:50;6.30;99.90
26505;DHT22;19493;48.042;7.584;2024-02-26T05:03:16;6.30;99.90
26505;DHT22;19493;48.042;7.584;2024-02-26T05:05:43;6.20;99.90
26505;DHT22;19493;48.042;7.584;2024-02-26T05:08:08;6.30;99.90
26505;DHT22;19493;48.042;7.584;2024-02-26T05:10:34;6.20;99.90
26505;DHT22;19493;48.042;7.584;2024-02-26T05:13:04;6.20;99.90
26505;DHT22;19493;48.042;7.584;2024-02-26T05:15:30;6.20;99.90
26505;DHT22;19493;48.042;7.584;2024-02-26T05:17:55;6.20;99.90
26505;DHT22;19493;48.042;7.584;2024-02-26T05:20:21;6.20;99.90
26505;DHT22;19493;48.042;7.584;2024-02-26T05:22:47;6.20;99.90
26505;DHT22;19493;48.042;7.584;2024-02-26T05:25:15;6.20;99.90
26505;DHT22;19493;48.042;7.584;2024-02-26T05:27:41;6.10;99.90
26505;DHT22;19493;48.042;7.584;2024-02-26T05:30:07;6.10;99.90
26505;DHT22;19493;48.042;7.584;2024-02-26T05:32:33;6.10;99.90
26505;DHT22;19493;48.042;7.584;2024-02-26T05:34:58;6.00;99.90
26505;DHT22;19493;48.042;7.584;2024-02-26T05:37:24;6.00;99.90
26505;DHT22;19493;48.042;7.584;2024-02-26T05:39:50;5.90;99.90
26505;DHT22;19493;48.042;7.584;2024-02-26T05:42:15;5.90;99.90
26505;DHT22;19493;48.042;7.584;2024-02-26T05:44:41;5.90;99.90
26505;DHT22;19493;48.042;7.584;2024-02-26T05:47:06;5.90;99.90
26505;DHT22;19493;48.042;7.584;2024-02-26T05:49:32;5.90;99.90
26505;DHT22;19493;48.042;7.584;2024-02-26T05:51:58;5.80;99.90
26505;DHT22;19493;48.042;7.584;2024-02-26T05:54:24;5.80;99.90
26505;DHT22;19493;48.042;7.584;2024-02-26T05:56:50;5.80;99.90
26505;DHT22;19493;48.042;7.584;2024-02-26T05:59:15;5.80;99.90
26505;DHT22;19493;48.042;7.584;2024-02-26T06:01:41;5.80;99.90
26505;DHT22;19493;48.042;7.584;2024-02-26T06:04:07;5.80;99.90
26505;DHT22;19493;48.042;7.584;2024-02-26T06:06:32;5.80;99.90
26505;DHT22;19493;48.042;7.584;2024-02-26T06:08:58;5.80;99.90
26505;DHT22;19493;48.042;7.584;2024-02-26T06:11:24;5.80;99.90
26505;DHT22;19493;48.042;7.584;2024-02-26T06:13:49;5.80;99.90
26505;DHT22;19493;48.042;7.584;2024-02-26T06:16:15;5.80;99.90
26505;DHT22;19493;48.042;7.584;2024-02-26T06:18:41;5.80;99.90
26505;DHT22;19493;48.042;7.584;2024-02-26T06:21:09;5.90;99.90
26505;DHT22;19493;48.042;7.584;2024-02-26T06:23:36;5.90;99.90
26505;DHT22;19493;48.042;7.584;2024-02-26T06:26:01;6.00;99.90
26505;DHT22;19493;48.042;7.584;2024-02-26T06:28:27;6.10;99.90
26505;DHT22;19493;48.042;7.584;2024-02-26T06:30:55;6.10;99.90
26505;DHT22;19493;48.042;7.584;2024-02-26T06:33:21;6.10;99.90
26505;DHT22;19493;48.042;7.584;2024-02-26T06:35:47;6.10;99.90
26505;DHT22;19493;48.042;7.584;2024-02-26T06:38:12;6.10;99.90
26505;DHT22;19493;48.042;7.584;2024-02-26T06:40:39;6.20;99.90
26505;DHT22;19493;48.042;7.584;2024-02-26T06:43:04;6.10;99.90
26505;DHT22;19493;48.042;7.584;2024-02-26T06:45:30;6.10;99.90
26505;DHT22;19493;48.042;7.584;2024-02-26T06:47:56;6.10;99.90
26505;DHT22;19493;48.042;7.584;2024-02-26T06:50:22;6.00;99.90
26505;DHT22;19493;48.042;7.584;2024-02-26T06:52:47;6.00;99.90
26505;DHT22;19493;48.042;7.584;2024-02-26T06:55:13;6.00;99.90
26505;DHT22;19493;48.042;7.584;2024-02-26T06:57:39;6.00;99.90
26505;DHT22;19493;48.042;7.584;2024-02-26T07:00:05;6.10;99.90
26505;DHT22;19493;48.042;7.584;2024-02-26T07:02:31;6.20;99.90
26505;DHT22;19493;48.042;7.584;2024-02-26T07:04:56;6.20;99.90
26505;DHT22;19493;48.042;7.584;2024-02-26T07:07:24;6.30;99.90
26505;DHT22;19493;48.042;7.584;2024-02-26T07:09:49;6.30;99.90
26505;DHT22;19493;48.042;7.584;2024-02-26T07:12:15;6.40;99.90
26505;DHT22;19493;48.042;7.584;2024-02-26T07:14:46;6.60;99.90
26505;DHT22;19493;48.042;7.584;2024-02-26T07:17:12;6.60;99.90
26505;DHT22;19493;48.042;7.584;2024-02-26T07:19:37;6.60;99.90
26505;DHT22;19493;48.042;7.584;2024-02-26T07:22:03;6.70;99.90
26505;DHT22;19493;48.042;7.584;2024-02-26T07:24:28;6.70;99.90
26505;DHT22;19493;48.042;7.584;2024-02-26T07:26:54;6.70;99.90
26505;DHT22;19493;48.042;7.584;2024-02-26T07:29:20;6.70;99.90
26505;DHT22;19493;48.042;7.584;2024-02-26T07:31:47;6.90;99.90
26505;DHT22;19493;48.042;7.584;2024-02-26T07:34:12;7.10;99.90
26505;DHT22;19493;48.042;7.584;2024-02-26T07:36:38;7.20;99.90
26505;DHT22;19493;48.042;7.584;2024-02-26T07:39:04;7.30;99.90
26505;DHT22;19493;48.042;7.584;2024-02-26T07:41:30;7.40;99.90
26505;DHT22;19493;48.042;7.584;2024-02-26T07:43:56;7.40;99.90
26505;DHT22;19493;48.042;7.584;2024-02-26T07:46:21;7.50;99.90
26505;DHT22;19493;48.042;7.584;2024-02-26T07:48:47;7.70;99.90
26505;DHT22;19493;48.042;7.584;2024-02-26T07:51:13;7.90;99.90
26505;DHT22;19493;48.042;7.584;2024-02-26T07:53:40;8.10;99.90
26505;DHT22;19493;48.042;7.584;2024-02-26T07:56:06;8.20;99.90
26505;DHT22;19493;48.042;7.584;2024-02-26T07:58:35;8.30;99.90
26505;DHT22;19493;48.042;7.584;2024-02-26T08:01:00;8.40;99.90
26505;DHT22;19493;48.042;7.584;2024-02-26T08:03:26;8.40;99.90
26505;DHT22;19493;48.042;7.584;2024-02-26T08:05:52;8.50;99.90
26505;DHT22;19493;48.042;7.584;2024-02-26T08:08:17;8.50;99.90
26505;DHT22;19493;48.042;7.584;2024-02-26T08:10:43;8.50;99.90
26505;DHT22;19493;48.042;7.584;2024-02-26T08:13:09;8.50;99.90
26505;DHT22;19493;48.042;7.584;2024-02-26T08:15:35;8.40;99.90
26505;DHT22;19493;48.042;7.584;2024-02-26T08:18:03;8.50;99.90
26505;DHT22;19493;48.042;7.584;2024-02-26T08:20:29;8.60;99.90
26505;DHT22;19493;48.042;7.584;2024-02-26T08:22:56;8.70;99.90
26505;DHT22;19493;48.042;7.584;2024-02-26T08:25:22;8.80;99.90
26505;DHT22;19493;48.042;7.584;2024-02-26T08:27:47;9.00;99.90
26505;DHT22;19493;48.042;7.584;2024-02-26T08:30:14;9.00;99.90
26505;DHT22;19493;48.042;7.584;2024-02-26T08:32:42;9.00;99.90
26505;DHT22;19493;48.042;7.584;2024-02-26T08:35:08;9.00;99.90
26505;DHT22;19493;48.042;7.584;2024-02-26T08:37:34;9.00;99.90
26505;DHT22;19493;48.042;7.584;2024-02-26T08:39:59;9.10;99.90
26505;DHT22;19493;48.042;7.584;2024-02-26T08:42:25;9.20;99.90
26505;DHT22;19493;48.042;7.584;2024-02-26T08:44:50;9.20;99.90
26505;DHT22;19493;48.042;7.584;2024-02-26T08:47:16;9.40;99.90
26505;DHT22;19493;48.042;7.584;2024-02-26T08:49:45;9.50;99.90
26505;DHT22;19493;48.042;7.584;2024-02-26T08:52:11;9.70;99.90
26505;DHT22;19493;48.042;7.584;2024-02-26T08:54:36;9.80;99.90
26505;DHT22;19493;48.042;7.584;2024-02-26T08:57:02;9.90;99.90
26505;DHT22;19493;48.042;7.584;2024-02-26T08:59:28;10.10;99.90
26505;DHT22;19493;48.042;7.584;2024-02-26T09:01:54;10.20;99.90
26505;DHT22;19493;48.042;7.584;2024-02-26T09:04:20;10.40;99.90
26505;DHT22;19493;48.042;7.584;2024-02-26T09:06:46;10.60;99.90
26505;DHT22;19493;48.042;7.584;2024-02-26T09:09:12;10.70;99.90
26505;DHT22;19493;48.042;7.584;2024-02-26T09:11:37;10.80;99.90
26505;DHT22;19493;48.042;7.584;2024-02-26T09:14:03;10.90;99.90
26505;DHT22;19493;48.042;7.584;2024-02-26T09:16:29;11.10;99.90
26505;DHT22;19493;48.042;7.584;2024-02-26T09:18:58;11.30;99.90
26505;DHT22;19493;48.042;7.584;2024-02-26T09:21:25;11.10;99.90
26505;DHT22;19493;48.042;7.584;2024-02-26T09:23:52;11.00;99.90
26505;DHT22;19493;48.042;7.584;2024-02-26T09:26:17;10.90;99.90
26505;DHT22;19493;48.042;7.584;2024-02-26T09:28:44;10.90;99.90
26505;DHT22;19493;48.042;7.584;2024-02-26T09:31:09;11.00;99.90
26505;DHT22;19493;48.042;7.584;2024-02-26T09:33:35;11.10;99.90
26505;DHT22;19493;48.042;7.584;2024-02-26T09:36:01;11.10;99.90
26505;DHT22;19493;48.042;7.584;2024-02-26T09:38:27;11.30;99.90
26505;DHT22;19493;48.042;7.584;2024-02-26T09:40:53;11.50;99.90
26505;DHT22;19493;48.042;7.584;2024-02-26T09:43:21;11.60;99.90
26505;DHT22;19493;48.042;7.584;2024-02-26T09:45:50;11.80;99.90
26505;DHT22;19493;48.042;7.584;2024-02-26T09:48:17;12.00;99.90
26505;DHT22;19493;48.042;7.584;2024-02-26T09:50:43;12.00;99.90
26505;DHT22;19493;48.042;7.584;2024-02-26T09:53:11;11.90;99.90
26505;DHT22;19493;48.042;7.584;2024-02-26T09:55:37;12.00;99.90
26505;DHT22;19493;48.042;7.584;2024-02-26T09:58:05;12.20;99.90
26505;DHT22;19493;48.042;7.584;2024-02-26T10:00:31;12.20;99.90
26505;DHT22;19493;48.042;7.584;2024-02-26T10:03:04;12.30;99.90
26505;DHT22;19493;48.042;7.584;2024-02-26T10:05:31;12.40;99.90
26505;DHT22;19493;48.042;7.584;2024-02-26T10:08:01;12.60;99.90
26505;DHT22;19493;48.042;7.584;2024-02-26T10:10:29;12.70;99.90
26505;DHT22;19493;48.042;7.584;2024-02-26T10:12:54;13.00;99.90
26505;DHT22;19493;48.042;7.584;2024-02-26T10:15:20;13.60;99.90
26505;DHT22;19493;48.042;7.584;2024-02-26T10:17:46;15.10;99.90
26505;DHT22;19493;48.042;7.584;2024-02-26T10:20:13;18.10;99.90
26505;DHT22;19493;48.042;7.584;2024-02-26T10:22:41;19.40;99.90
26505;DHT22;19493;48.042;7.584;2024-02-26T10:25:06;19.90;95.00
26505;DHT22;19493;48.042;7.584;2024-02-26T10:27:34;21.10;88.00
26505;DHT22;19493;48.042;7.584;2024-02-26T10:30:03;21.00;82.40
26505;DHT22;19493;48.042;7.584;2024-02-26T10:32:30;20.50;82.80
26505;DHT22;19493;48.042;7.584;2024-02-26T10:34:56;20.00;83.10
26505;DHT22;19493;48.042;7.584;2024-02-26T10:37:23;19.30;87.30
26505;DHT22;19493;48.042;7.584;2024-02-26T10:39:48;18.50;89.50
26505;DHT22;19493;48.042;7.584;2024-02-26T10:42:14;18.20;90.90
26505;DHT22;19493;48.042;7.584;2024-02-26T10:44:40;19.20;89.70
26505;DHT22;19493;48.042;7.584;2024-02-26T10:47:07;19.00;87.80
26505;DHT22;19493;48.042;7.584;2024-02-26T10:49:35;19.30;86.60
26505;DHT22;19493;48.042;7.584;2024-02-26T10:52:01;20.40;83.30
26505;DHT22;19493;48.042;7.584;2024-02-26T10:54:29;23.00;76.90
26505;DHT22;19493;48.042;7.584;2024-02-26T10:56:59;24.50;67.40
26505;DHT22;19493;48.042;7.584;2024-02-26T10:59:25;22.70;64.70
26505;DHT22;19493;48.042;7.584;2024-02-26T11:01:51;21.60;65.90
26505;DHT22;19493;48.042;7.584;2024-02-26T11:04:18;21.60;65.40
26505;DHT22;19493;48.042;7.584;2024-02-26T11:06:47;21.20;68.30
26505;DHT22;19493;48.042;7.584;2024-02-26T11:09:15;19.80;69.90
26505;DHT22;19493;48.042;7.584;2024-02-26T11:11:42;18.50;75.40
26505;DHT22;19493;48.042;7.584;2024-02-26T11:14:08;17.60;79.40
26505;DHT22;19493;48.042;7.584;2024-02-26T11:16:35;17.30;81.80
26505;DHT22;19493;48.042;7.584;2024-02-26T11:19:02;17.40;82.70
26505;DHT22;19493;48.042;7.584;2024-02-26T11:21:28;17.40;83.20
26505;DHT22;19493;48.042;7.584;2024-02-26T11:24:11;17.70;82.20
26505;DHT22;19493;48.042;7.584;2024-02-26T11:26:51;18.00;82.00
26505;DHT22;19493;48.042;7.584;2024-02-26T11:29:27;18.50;79.50
26505;DHT22;19493;48.042;7.584;2024-02-26T11:31:53;19.90;76.40
26505;DHT22;19493;48.042;7.584;2024-02-26T11:34:19;21.30;73.20
26505;DHT22;19493;48.042;7.584;2024-02-26T11:36:46;21.40;69.40
26505;DHT22;19493;48.042;7.584;2024-02-26T11:39:12;21.20;69.60
26505;DHT22;19493;48.042;7.584;2024-02-26T11:41:40;21.20;70.70
26505;DHT22;19493;48.042;7.584;2024-02-26T11:44:06;22.00;70.90
26505;DHT22;19493;48.042;7.584;2024-02-26T11:46:32;22.30;67.10
26505;DHT22;19493;48.042;7.584;2024-02-26T11:51:55;22.50;66.10
26505;DHT22;19493;48.042;7.584;2024-02-26T11:57:30;23.80;61.70
26505;DHT22;19493;48.042;7.584;2024-02-26T12:02:51;24.10;58.30
26505;DHT22;19493;48.042;7.584;2024-02-26T12:05:23;25.20;58.20
26505;DHT22;19493;48.042;7.584;2024-02-26T12:07:53;27.80;55.50
26505;DHT22;19493;48.042;7.584;2024-02-26T12:13:14;28.70;52.80
26505;DHT22;19493;48.042;7.584;2024-02-26T12:15:44;30.20;53.20
26505;DHT22;19493;48.042;7.584;2024-02-26T12:18:18;29.10;50.10
26505;DHT22;19493;48.042;7.584;2024-02-26T12:20:43;27.50;51.90
26505;DHT22;19493;48.042;7.584;2024-02-26T12:23:15;28.10;51.60
26505;DHT22;19493;48.042;7.584;2024-02-26T12:25:43;29.70;48.50
26505;DHT22;19493;48.042;7.584;2024-02-26T12:28:09;30.40;45.10
26505;DHT22;19493;48.042;7.584;2024-02-26T12:30:35;31.40;44.80
26505;DHT22;19493;48.042;7.584;2024-02-26T12:33:02;30.80;47.60
26505;DHT22;19493;48.042;7.584;2024-02-26T12:35:28;29.90;49.50
26505;DHT22;19493;48.042;7.584;2024-02-26T12:37:57;29.50;50.80
26505;DHT22;19493;48.042;7.584;2024-02-26T12:40:23;29.30;49.90
26505;DHT22;19493;48.042;7.584;2024-02-26T12:42:49;28.30;50.30
26505;DHT22;19493;48.042;7.584;2024-02-26T12:45:15;28.10;50.90
26505;DHT22;19493;48.042;7.584;2024-02-26T12:47:42;27.40;51.80
26505;DHT22;19493;48.042;7.584;2024-02-26T12:50:09;25.70;53.00
26505;DHT22;19493;48.042;7.584;2024-02-26T12:52:38;23.80;54.30
26505;DHT22;19493;48.042;7.584;2024-02-26T12:55:05;22.80;56.10
26505;DHT22;19493;48.042;7.584;2024-02-26T12:57:33;21.90;64.00
26505;DHT22;19493;48.042;7.584;2024-02-26T13:00:02;21.00;65.20
26505;DHT22;19493;48.042;7.584;2024-02-26T13:02:30;20.10;66.50
26505;DHT22;19493;48.042;7.584;2024-02-26T13:04:56;19.40;73.90
26505;DHT22;19493;48.042;7.584;2024-02-26T13:07:22;19.70;76.20
26505;DHT22;19493;48.042;7.584;2024-02-26T13:09:48;20.90;73.50
26505;DHT22;19493;48.042;7.584;2024-02-26T13:12:14;23.50;70.30
26505;DHT22;19493;48.042;7.584;2024-02-26T13:14:40;26.20;52.20
26505;DHT22;19493;48.042;7.584;2024-02-26T13:17:05;27.80;47.80
26505;DHT22;19493;48.042;7.584;2024-02-26T13:19:31;27.50;47.00
26505;DHT22;19493;48.042;7.584;2024-02-26T13:22:04;26.10;48.40
26505;DHT22;19493;48.042;7.584;2024-02-26T13:24:32;25.60;49.50
26505;DHT22;19493;48.042;7.584;2024-02-26T13:26:57;26.30;49.80
26505;DHT22;19493;48.042;7.584;2024-02-26T13:29:23;27.50;47.40
26505;DHT22;19493;48.042;7.584;2024-02-26T13:31:57;28.90;56.10
26505;DHT22;19493;48.042;7.584;2024-02-26T13:34:23;30.30;71.50
26505;DHT22;19493;48.042;7.584;2024-02-26T13:36:50;30.70;51.50
26505;DHT22;19493;48.042;7.584;2024-02-26T13:39:25;30.50;47.00
26505;DHT22;19493;48.042;7.584;2024-02-26T13:41:51;30.20;45.10
26505;DHT22;19493;48.042;7.584;2024-02-26T13:44:17;29.20;45.40
26505;DHT22;19493;48.042;7.584;2024-02-26T13:46:43;27.10;47.80
26505;DHT22;19493;48.042;7.584;2024-02-26T13:49:09;24.40;51.50
26505;DHT22;19493;48.042;7.584;2024-02-26T13:51:36;22.20;75.80
26505;DHT22;19493;48.042;7.584;2024-02-26T13:54:02;20.30;57.20
26505;DHT22;19493;48.042;7.584;2024-02-26T13:56:28;19.00;61.20
26505;DHT22;19493;48.042;7.584;2024-02-26T13:58:54;18.30;62.10
26505;DHT22;19493;48.042;7.584;2024-02-26T14:01:19;17.80;64.20
26505;DHT22;19493;48.042;7.584;2024-02-26T14:03:45;17.40;67.40
26505;DHT22;19493;48.042;7.584;2024-02-26T14:06:11;17.20;67.70
26505;DHT22;19493;48.042;7.584;2024-02-26T14:08:37;17.10;68.30
26505;DHT22;19493;48.042;7.584;2024-02-26T14:11:02;16.80;69.60
26505;DHT22;19493;48.042;7.584;2024-02-26T14:13:28;16.70;70.20
26505;DHT22;19493;48.042;7.584;2024-02-26T14:15:54;16.50;70.60
26505;DHT22;19493;48.042;7.584;2024-02-26T14:18:19;16.40;72.10
26505;DHT22;19493;48.042;7.584;2024-02-26T14:20:45;16.50;71.80
26505;DHT22;19493;48.042;7.584;2024-02-26T14:23:11;16.60;72.00
26505;DHT22;19493;48.042;7.584;2024-02-26T14:25:36;16.60;71.10
26505;DHT22;19493;48.042;7.584;2024-02-26T14:28:02;16.40;72.70
26505;DHT22;19493;48.042;7.584;2024-02-26T14:30:28;16.40;74.10
26505;DHT22;19493;48.042;7.584;2024-02-26T14:32:54;16.40;73.80
26505;DHT22;19493;48.042;7.584;2024-02-26T14:35:20;16.40;74.40
26505;DHT22;19493;48.042;7.584;2024-02-26T14:37:45;16.20;76.40
26505;DHT22;19493;48.042;7.584;2024-02-26T14:40:13;16.10;79.20
26505;DHT22;19493;48.042;7.584;2024-02-26T14:42:40;16.10;79.40
26505;DHT22;19493;48.042;7.584;2024-02-26T14:45:06;15.90;80.40
26505;DHT22;19493;48.042;7.584;2024-02-26T14:47:37;15.90;80.90
26505;DHT22;19493;48.042;7.584;2024-02-26T14:50:04;15.80;82.40
26505;DHT22;19493;48.042;7.584;2024-02-26T14:52:29;15.70;83.90
26505;DHT22;19493;48.042;7.584;2024-02-26T14:54:55;15.70;86.30
26505;DHT22;19493;48.042;7.584;2024-02-26T14:57:21;15.70;87.50
26505;DHT22;19493;48.042;7.584;2024-02-26T14:59:46;15.60;88.90
26505;DHT22;19493;48.042;7.584;2024-02-26T15:02:13;15.60;90.20
26505;DHT22;19493;48.042;7.584;2024-02-26T15:04:39;15.50;90.60
26505;DHT22;19493;48.042;7.584;2024-02-26T15:07:04;15.50;91.40
26505;DHT22;19493;48.042;7.584;2024-02-26T15:09:30;15.50;92.20
26505;DHT22;19493;48.042;7.584;2024-02-26T15:11:55;15.50;92.40
26505;DHT22;19493;48.042;7.584;2024-02-26T15:14:23;15.40;92.20
26505;DHT22;19493;48.042;7.584;2024-02-26T15:16:48;15.30;92.80
26505;DHT22;19493;48.042;7.584;2024-02-26T15:19:14;15.40;93.50
26505;DHT22;19493;48.042;7.584;2024-02-26T15:21:46;15.70;93.80
26505;DHT22;19493;48.042;7.584;2024-02-26T15:24:12;16.50;92.10
26505;DHT22;19493;48.042;7.584;2024-02-26T15:26:38;17.00;90.70
26505;DHT22;19493;48.042;7.584;2024-02-26T15:29:06;16.60;90.40
26505;DHT22;19493;48.042;7.584;2024-02-26T15:31:31;16.00;92.00
26505;DHT22;19493;48.042;7.584;2024-02-26T15:33:57;15.60;93.70
26505;DHT22;19493;48.042;7.584;2024-02-26T15:36:22;15.40;95.30
26505;DHT22;19493;48.042;7.584;2024-02-26T15:38:48;15.30;96.20
26505;DHT22;19493;48.042;7.584;2024-02-26T15:41:14;15.00;97.00
26505;DHT22;19493;48.042;7.584;2024-02-26T15:43:40;14.90;98.80
26505;DHT22;19493;48.042;7.584;2024-02-26T15:46:06;14.70;99.90